sensor_id;sensor_type;location;lat;lon;timestamp;P1;durP1;ratioP1;P2;durP2;ratioP2
6842;SDS011;3460;52.028;8.916;2024-03-17T00:02:16;5.73;;;2.70;;
6842;SDS011;3460;52.028;8.916;2024-03-17T00:04:42;8.20;;;3.23;;
6842;SDS011;3460;52.028;8.916;2024-03-17T00:07:10;5.73;;;2.57;;
6842;SDS011;3460;52.028;8.916;2024-03-17T00:09:36;3.93;;;2.63;;
6842;SDS011;3460;52.028;8.916;2024-03-17T00:12:04;7.50;;;3.60;;
6842;SDS011;3460;52.028;8.916;2024-03-17T00:14:30;7.30;;;4.33;;
6842;SDS011;3460;52.028;8.916;2024-03-17T00:16:57;6.47;;;3.67;;
6842;SDS011;3460;52.028;8.916;2024-03-17T00:19:23;9.23;;;3.97;;
6842;SDS011;3460;52.028;8.916;2024-03-17T00:21:51;7.13;;;4.07;;
6842;SDS011;3460;52.028;8.916;2024-03-17T00:24:18;6.87;;;3.90;;
6842;SDS011;3460;52.028;8.916;2024-03-17T00:26:45;7.57;;;4.57;;
6842;SDS011;3460;52.028;8.916;2024-03-17T00:29:11;7.60;;;4.00;;
6842;SDS011;3460;52.028;8.916;2024-03-17T00:31:39;11.63;;;4.13;;
6842;SDS011;3460;52.028;8.916;2024-03-17T00:34:05;6.53;;;4.10;;
6842;SDS011;3460;52.028;8.916;2024-03-17T00:36:32;6.07;;;4.03;;
6842;SDS011;3460;52.028;8.916;2024-03-17T00:38:58;5.37;;;3.00;;
6842;SDS011;3460;52.028;8.916;2024-03-17T00:41:27;5.30;;;3.10;;
6842;SDS011;3460;52.028;8.916;2024-03-17T00:43:53;5.63;;;3.27;;
6842;SDS011;3460;52.028;8.916;2024-03-17T00:46:20;7.13;;;3.60;;
6842;SDS011;3460;52.028;8.916;2024-03-17T00:48:46;4.60;;;3.00;;
6842;SDS011;3460;52.028;8.916;2024-03-17T00:51:14;3.87;;;3.03;;
6842;SDS011;3460;52.028;8.916;2024-03-17T00:53:40;8.33;;;3.33;;
6842;SDS011;3460;52.028;8.916;2024-03-17T00:56:06;4.90;;;3.20;;
6842;SDS011;3460;52.028;8.916;2024-03-17T00:58:34;9.87;;;5.00;;
6842;SDS011;3460;52.028;8.916;2024-03-17T01:01:00;6.03;;;3.87;;
6842;SDS011;3460;52.028;8.916;2024-03-17T01:03:26;6.43;;;3.63;;
6842;SDS011;3460;52.028;8.916;2024-03-17T01:05:54;5.50;;;3.27;;
6842;SDS011;3460;52.028;8.916;2024-03-17T01:08:19;4.40;;;3.33;;
6842;SDS011;3460;52.028;8.916;2024-03-17T01:10:48;6.40;;;3.60;;
6842;SDS011;3460;52.028;8.916;2024-03-17T01:13:15;6.17;;;3.27;;
6842;SDS011;3460;52.028;8.916;2024-03-17T01:15:44;9.13;;;4.40;;
6842;SDS011;3460;52.028;8.916;2024-03-17T01:18:09;6.37;;;3.43;;
6842;SDS011;3460;52.028;8.916;2024-03-17T01:20:37;4.07;;;2.77;;
6842;SDS011;3460;52.028;8.916;2024-03-17T01:23:03;6.90;;;2.67;;
6842;SDS011;3460;52.028;8.916;2024-03-17T01:25:31;8.87;;;3.40;;
6842;SDS011;3460;52.028;8.916;2024-03-17T01:28:01;12.63;;;3.20;;
6842;SDS011;3460;52.028;8.916;2024-03-17T01:30:28;8.83;;;3.00;;
6842;SDS011;3460;52.028;8.916;2024-03-17T01:32:55;4.77;;;3.17;;
6842;SDS011;3460;52.028;8.916;2024-03-17T01:35:22;4.00;;;3.00;;
6842;SDS011;3460;52.028;8.916;2024-03-17T01:37:48;10.50;;;3.13;;
6842;SDS011;3460;52.028;8.916;2024-03-17T01:40:15;5.50;;;2.93;;
6842;SDS011;3460;52.028;8.916;2024-03-17T01:42:41;5.80;;;3.30;;
6842;SDS011;3460;52.028;8.916;2024-03-17T01:47:51;6.13;;;3.10;;
6842;SDS011;3460;52.028;8.916;2024-03-17T01:50:19;9.33;;;3.33;;
6842;SDS011;3460;52.028;8.916;2024-03-17T01:52:49;3.83;;;2.90;;
6842;SDS011;3460;52.028;8.916;2024-03-17T01:55:19;6.10;;;3.30;;
6842;SDS011;3460;52.028;8.916;2024-03-17T01:57:45;4.37;;;2.83;;
6842;SDS011;3460;52.028;8.916;2024-03-17T02:00:12;4.37;;;3.30;;
6842;SDS011;3460;52.028;8.916;2024-03-17T02:02:39;9.00;;;3.90;;
6842;SDS011;3460;52.028;8.916;2024-03-17T02:05:06;5.83;;;3.30;;
6842;SDS011;3460;52.028;8.916;2024-03-17T02:07:33;9.87;;;3.40;;
6842;SDS011;3460;52.028;8.916;2024-03-17T02:10:00;5.87;;;3.60;;
6842;SDS011;3460;52.028;8.916;2024-03-17T02:12:28;6.47;;;3.67;;
6842;SDS011;3460;52.028;8.916;2024-03-17T02:14:56;5.00;;;3.20;;
6842;SDS011;3460;52.028;8.916;2024-03-17T02:17:22;7.90;;;3.33;;
6842;SDS011;3460;52.028;8.916;2024-03-17T02:19:50;8.17;;;3.73;;
6842;SDS011;3460;52.028;8.916;2024-03-17T02:22:18;5.40;;;3.60;;
6842;SDS011;3460;52.028;8.916;2024-03-17T02:24:45;8.23;;;3.47;;
6842;SDS011;3460;52.028;8.916;2024-03-17T02:27:11;5.93;;;3.53;;
6842;SDS011;3460;52.028;8.916;2024-03-17T02:29:38;8.23;;;3.67;;
6842;SDS011;3460;52.028;8.916;2024-03-17T02:32:04;7.63;;;3.60;;
6842;SDS011;3460;52.028;8.916;2024-03-17T02:34:32;4.67;;;3.30;;
6842;SDS011;3460;52.028;8.916;2024-03-17T02:36:59;5.60;;;3.20;;
6842;SDS011;3460;52.028;8.916;2024-03-17T02:39:28;7.03;;;3.67;;
6842;SDS011;3460;52.028;8.916;2024-03-17T02:41:59;7.37;;;3.50;;
6842;SDS011;3460;52.028;8.916;2024-03-17T02:44:26;10.07;;;3.83;;
6842;SDS011;3460;52.028;8.916;2024-03-17T02:46:53;9.87;;;3.57;;
6842;SDS011;3460;52.028;8.916;2024-03-17T02:49:20;4.97;;;2.97;;
6842;SDS011;3460;52.028;8.916;2024-03-17T02:51:47;10.47;;;3.50;;
6842;SDS011;3460;52.028;8.916;2024-03-17T02:54:13;6.57;;;3.30;;
6842;SDS011;3460;52.028;8.916;2024-03-17T02:56:41;9.13;;;3.73;;
6842;SDS011;3460;52.028;8.916;2024-03-17T02:59:08;8.43;;;3.23;;
6842;SDS011;3460;52.028;8.916;2024-03-17T03:01:36;7.00;;;3.17;;
6842;SDS011;3460;52.028;8.916;2024-03-17T03:04:02;7.10;;;3.00;;
6842;SDS011;3460;52.028;8.916;2024-03-17T03:06:31;7.67;;;3.17;;
6842;SDS011;3460;52.028;8.916;2024-03-17T03:08:59;7.83;;;3.13;;
6842;SDS011;3460;52.028;8.916;2024-03-17T03:11:26;5.97;;;3.13;;
6842;SDS011;3460;52.028;8.916;2024-03-17T03:13:54;6.83;;;2.73;;
6842;SDS011;3460;52.028;8.916;2024-03-17T03:16:21;5.10;;;2.93;;
6842;SDS011;3460;52.028;8.916;2024-03-17T03:18:50;5.53;;;3.10;;
6842;SDS011;3460;52.028;8.916;2024-03-17T03:21:17;7.77;;;2.93;;
6842;SDS011;3460;52.028;8.916;2024-03-17T03:23:44;6.37;;;2.97;;
6842;SDS011;3460;52.028;8.916;2024-03-17T03:26:11;6.23;;;3.33;;
6842;SDS011;3460;52.028;8.916;2024-03-17T03:28:38;5.63;;;2.87;;
6842;SDS011;3460;52.028;8.916;2024-03-17T03:31:07;5.80;;;2.77;;
6842;SDS011;3460;52.028;8.916;2024-03-17T03:33:38;3.77;;;2.73;;
6842;SDS011;3460;52.028;8.916;2024-03-17T03:36:09;5.47;;;2.63;;
6842;SDS011;3460;52.028;8.916;2024-03-17T03:38:37;8.57;;;3.60;;
6842;SDS011;3460;52.028;8.916;2024-03-17T03:41:08;6.43;;;3.07;;
6842;SDS011;3460;52.028;8.916;2024-03-17T03:43:35;6.20;;;2.80;;
6842;SDS011;3460;52.028;8.916;2024-03-17T03:46:03;7.93;;;3.20;;
6842;SDS011;3460;52.028;8.916;2024-03-17T03:48:32;8.83;;;3.27;;
6842;SDS011;3460;52.028;8.916;2024-03-17T03:51:02;8.77;;;3.67;;
6842;SDS011;3460;52.028;8.916;2024-03-17T03:53:31;7.97;;;3.00;;
6842;SDS011;3460;52.028;8.916;2024-03-17T03:55:57;14.07;;;3.23;;
6842;SDS011;3460;52.028;8.916;2024-03-17T03:58:26;8.37;;;3.50;;
6842;SDS011;3460;52.028;8.916;2024-03-17T04:00:53;8.77;;;3.23;;
6842;SDS011;3460;52.028;8.916;2024-03-17T04:03:21;6.13;;;2.93;;
6842;SDS011;3460;52.028;8.916;2024-03-17T04:05:49;7.23;;;2.80;;
6842;SDS011;3460;52.028;8.916;2024-03-17T04:08:18;4.53;;;2.90;;
6842;SDS011;3460;52.028;8.916;2024-03-17T04:10:49;6.13;;;3.10;;
6842;SDS011;3460;52.028;8.916;2024-03-17T04:13:16;5.87;;;3.37;;
6842;SDS011;3460;52.028;8.916;2024-03-17T04:15:43;6.07;;;3.13;;
6842;SDS011;3460;52.028;8.916;2024-03-17T04:18:10;5.83;;;3.10;;
6842;SDS011;3460;52.028;8.916;2024-03-17T04:20:37;8.77;;;3.37;;
6842;SDS011;3460;52.028;8.916;2024-03-17T04:23:07;8.13;;;3.30;;
6842;SDS011;3460;52.028;8.916;2024-03-17T04:25:34;5.13;;;2.97;;
6842;SDS011;3460;52.028;8.916;2024-03-17T04:28:01;6.33;;;3.37;;
6842;SDS011;3460;52.028;8.916;2024-03-17T04:30:28;6.03;;;2.90;;
6842;SDS011;3460;52.028;8.916;2024-03-17T04:32:56;6.53;;;3.20;;
6842;SDS011;3460;52.028;8.916;2024-03-17T04:35:23;6.50;;;3.50;;
6842;SDS011;3460;52.028;8.916;2024-03-17T04:37:50;8.17;;;3.60;;
6842;SDS011;3460;52.028;8.916;2024-03-17T04:40:18;7.13;;;3.47;;
6842;SDS011;3460;52.028;8.916;2024-03-17T04:42:45;6.87;;;3.47;;
6842;SDS011;3460;52.028;8.916;2024-03-17T04:45:11;6.30;;;3.40;;
6842;SDS011;3460;52.028;8.916;2024-03-17T04:47:38;6.70;;;3.30;;
6842;SDS011;3460;52.028;8.916;2024-03-17T04:50:05;10.43;;;3.33;;
6842;SDS011;3460;52.028;8.916;2024-03-17T04:52:32;6.73;;;3.17;;
6842;SDS011;3460;52.028;8.916;2024-03-17T04:54:59;7.90;;;3.13;;
6842;SDS011;3460;52.028;8.916;2024-03-17T04:57:27;7.10;;;3.50;;
6842;SDS011;3460;52.028;8.916;2024-03-17T04:59:54;6.83;;;3.47;;
6842;SDS011;3460;52.028;8.916;2024-03-17T05:02:21;7.53;;;3.27;;
6842;SDS011;3460;52.028;8.916;2024-03-17T05:04:48;5.70;;;3.30;;
6842;SDS011;3460;52.028;8.916;2024-03-17T05:07:15;9.67;;;3.50;;
6842;SDS011;3460;52.028;8.916;2024-03-17T05:09:42;8.07;;;3.30;;
6842;SDS011;3460;52.028;8.916;2024-03-17T05:12:09;9.30;;;3.10;;
6842;SDS011;3460;52.028;8.916;2024-03-17T05:14:37;6.03;;;3.70;;
6842;SDS011;3460;52.028;8.916;2024-03-17T05:17:04;8.43;;;3.67;;
6842;SDS011;3460;52.028;8.916;2024-03-17T05:19:31;4.73;;;3.43;;
6842;SDS011;3460;52.028;8.916;2024-03-17T05:21:58;7.93;;;3.13;;
6842;SDS011;3460;52.028;8.916;2024-03-17T05:24:25;5.73;;;3.63;;
6842;SDS011;3460;52.028;8.916;2024-03-17T05:26:52;8.17;;;3.70;;
6842;SDS011;3460;52.028;8.916;2024-03-17T05:29:19;8.17;;;4.10;;
6842;SDS011;3460;52.028;8.916;2024-03-17T05:31:49;7.20;;;3.50;;
6842;SDS011;3460;52.028;8.916;2024-03-17T05:34:16;6.87;;;3.60;;
6842;SDS011;3460;52.028;8.916;2024-03-17T05:36:43;8.33;;;3.90;;
6842;SDS011;3460;52.028;8.916;2024-03-17T05:39:12;9.03;;;3.77;;
6842;SDS011;3460;52.028;8.916;2024-03-17T05:41:38;8.60;;;3.73;;
6842;SDS011;3460;52.028;8.916;2024-03-17T05:44:06;7.53;;;3.53;;
6842;SDS011;3460;52.028;8.916;2024-03-17T05:46:33;7.20;;;3.70;;
6842;SDS011;3460;52.028;8.916;2024-03-17T05:49:01;8.17;;;3.77;;
6842;SDS011;3460;52.028;8.916;2024-03-17T05:51:28;5.10;;;4.17;;
6842;SDS011;3460;52.028;8.916;2024-03-17T05:53:55;7.87;;;3.73;;
6842;SDS011;3460;52.028;8.916;2024-03-17T05:56:23;8.37;;;3.80;;
6842;SDS011;3460;52.028;8.916;2024-03-17T05:58:50;8.67;;;3.53;;
6842;SDS011;3460;52.028;8.916;2024-03-17T06:01:17;7.47;;;3.90;;
6842;SDS011;3460;52.028;8.916;2024-03-17T06:03:44;9.97;;;3.93;;
6842;SDS011;3460;52.028;8.916;2024-03-17T06:06:15;9.00;;;3.90;;
6842;SDS011;3460;52.028;8.916;2024-03-17T06:08:42;8.63;;;3.83;;
6842;SDS011;3460;52.028;8.916;2024-03-17T06:11:09;9.33;;;3.90;;
6842;SDS011;3460;52.028;8.916;2024-03-17T06:13:38;9.90;;;4.27;;
6842;SDS011;3460;52.028;8.916;2024-03-17T06:16:05;6.70;;;3.90;;
6842;SDS011;3460;52.028;8.916;2024-03-17T06:18:32;12.80;;;4.20;;
6842;SDS011;3460;52.028;8.916;2024-03-17T06:20:58;6.70;;;4.17;;
6842;SDS011;3460;52.028;8.916;2024-03-17T06:23:27;7.63;;;4.67;;
6842;SDS011;3460;52.028;8.916;2024-03-17T06:25:54;5.33;;;3.43;;
6842;SDS011;3460;52.028;8.916;2024-03-17T06:28:21;6.87;;;4.53;;
6842;SDS011;3460;52.028;8.916;2024-03-17T06:30:55;7.87;;;4.20;;
6842;SDS011;3460;52.028;8.916;2024-03-17T06:33:24;7.00;;;3.93;;
6842;SDS011;3460;52.028;8.916;2024-03-17T06:35:53;6.87;;;4.57;;
6842;SDS011;3460;52.028;8.916;2024-03-17T06:38:19;7.70;;;4.40;;
6842;SDS011;3460;52.028;8.916;2024-03-17T06:40:50;10.50;;;4.43;;
6842;SDS011;3460;52.028;8.916;2024-03-17T06:43:18;6.43;;;4.03;;
6842;SDS011;3460;52.028;8.916;2024-03-17T06:45:53;7.87;;;3.87;;
6842;SDS011;3460;52.028;8.916;2024-03-17T06:48:21;5.30;;;3.97;;
6842;SDS011;3460;52.028;8.916;2024-03-17T06:50:48;7.07;;;4.50;;
6842;SDS011;3460;52.028;8.916;2024-03-17T06:53:14;7.20;;;4.27;;
6842;SDS011;3460;52.028;8.916;2024-03-17T06:55:41;8.33;;;3.70;;
6842;SDS011;3460;52.028;8.916;2024-03-17T06:58:09;9.37;;;4.20;;
6842;SDS011;3460;52.028;8.916;2024-03-17T07:00:36;8.13;;;4.40;;
6842;SDS011;3460;52.028;8.916;2024-03-17T07:03:03;7.37;;;4.07;;
6842;SDS011;3460;52.028;8.916;2024-03-17T07:05:30;7.03;;;4.23;;
6842;SDS011;3460;52.028;8.916;2024-03-17T07:07:58;7.37;;;3.87;;
6842;SDS011;3460;52.028;8.916;2024-03-17T07:10:25;10.20;;;4.00;;
6842;SDS011;3460;52.028;8.916;2024-03-17T07:12:52;7.87;;;3.97;;
6842;SDS011;3460;52.028;8.916;2024-03-17T07:15:20;8.00;;;3.93;;
6842;SDS011;3460;52.028;8.916;2024-03-17T07:17:47;6.33;;;4.17;;
6842;SDS011;3460;52.028;8.916;2024-03-17T07:20:16;7.23;;;4.13;;
6842;SDS011;3460;52.028;8.916;2024-03-17T07:22:43;7.87;;;4.30;;
6842;SDS011;3460;52.028;8.916;2024-03-17T07:25:10;8.80;;;3.70;;
6842;SDS011;3460;52.028;8.916;2024-03-17T07:27:37;6.23;;;4.00;;
6842;SDS011;3460;52.028;8.916;2024-03-17T07:30:05;8.93;;;4.00;;
6842;SDS011;3460;52.028;8.916;2024-03-17T07:32:35;7.90;;;4.13;;
6842;SDS011;3460;52.028;8.916;2024-03-17T07:35:02;8.90;;;3.87;;
6842;SDS011;3460;52.028;8.916;2024-03-17T07:37:29;8.63;;;3.73;;
6842;SDS011;3460;52.028;8.916;2024-03-17T07:39:58;7.27;;;4.17;;
6842;SDS011;3460;52.028;8.916;2024-03-17T07:42:26;7.07;;;4.10;;
6842;SDS011;3460;52.028;8.916;2024-03-17T07:44:52;5.23;;;3.60;;
6842;SDS011;3460;52.028;8.916;2024-03-17T07:47:19;6.37;;;3.63;;
6842;SDS011;3460;52.028;8.916;2024-03-17T07:49:47;11.07;;;3.87;;
6842;SDS011;3460;52.028;8.916;2024-03-17T07:52:14;7.50;;;3.63;;
6842;SDS011;3460;52.028;8.916;2024-03-17T07:54:41;7.20;;;4.17;;
6842;SDS011;3460;52.028;8.916;2024-03-17T07:57:08;8.33;;;4.10;;
6842;SDS011;3460;52.028;8.916;2024-03-17T07:59:35;7.07;;;4.13;;
6842;SDS011;3460;52.028;8.916;2024-03-17T08:02:02;7.40;;;3.73;;
6842;SDS011;3460;52.028;8.916;2024-03-17T08:04:29;6.47;;;3.63;;
6842;SDS011;3460;52.028;8.916;2024-03-17T08:06:57;6.00;;;3.47;;
6842;SDS011;3460;52.028;8.916;2024-03-17T08:09:24;8.80;;;3.50;;
6842;SDS011;3460;52.028;8.916;2024-03-17T08:11:51;8.83;;;3.47;;
6842;SDS011;3460;52.028;8.916;2024-03-17T08:14:18;11.97;;;3.93;;
6842;SDS011;3460;52.028;8.916;2024-03-17T08:16:45;7.37;;;3.97;;
6842;SDS011;3460;52.028;8.916;2024-03-17T08:19:12;6.97;;;3.10;;
6842;SDS011;3460;52.028;8.916;2024-03-17T08:21:39;8.50;;;3.50;;
6842;SDS011;3460;52.028;8.916;2024-03-17T08:24:07;7.53;;;3.93;;
6842;SDS011;3460;52.028;8.916;2024-03-17T08:26:34;6.73;;;3.30;;
6842;SDS011;3460;52.028;8.916;2024-03-17T08:29:01;6.87;;;3.83;;
6842;SDS011;3460;52.028;8.916;2024-03-17T08:31:27;8.60;;;3.60;;
6842;SDS011;3460;52.028;8.916;2024-03-17T08:33:54;6.20;;;3.53;;
6842;SDS011;3460;52.028;8.916;2024-03-17T08:36:21;6.23;;;3.80;;
6842;SDS011;3460;52.028;8.916;2024-03-17T08:38:49;9.03;;;3.77;;
6842;SDS011;3460;52.028;8.916;2024-03-17T08:41:18;9.80;;;4.10;;
6842;SDS011;3460;52.028;8.916;2024-03-17T08:43:44;9.73;;;4.27;;
6842;SDS011;3460;52.028;8.916;2024-03-17T08:46:12;8.90;;;3.70;;
6842;SDS011;3460;52.028;8.916;2024-03-17T08:48:40;8.40;;;3.70;;
6842;SDS011;3460;52.028;8.916;2024-03-17T08:51:07;7.07;;;3.73;;
6842;SDS011;3460;52.028;8.916;2024-03-17T08:53:35;7.33;;;3.60;;
6842;SDS011;3460;52.028;8.916;2024-03-17T08:56:04;7.43;;;3.70;;
6842;SDS011;3460;52.028;8.916;2024-03-17T08:58:34;6.90;;;4.00;;
6842;SDS011;3460;52.028;8.916;2024-03-17T09:01:04;6.13;;;4.27;;
6842;SDS011;3460;52.028;8.916;2024-03-17T09:03:32;7.80;;;4.70;;
6842;SDS011;3460;52.028;8.916;2024-03-17T09:05:59;8.13;;;4.43;;
6842;SDS011;3460;52.028;8.916;2024-03-17T09:08:26;10.33;;;4.80;;
6842;SDS011;3460;52.028;8.916;2024-03-17T09:10:53;8.50;;;4.57;;
6842;SDS011;3460;52.028;8.916;2024-03-17T09:13:20;9.33;;;4.83;;
6842;SDS011;3460;52.028;8.916;2024-03-17T09:15:51;9.57;;;4.93;;
6842;SDS011;3460;52.028;8.916;2024-03-17T09:18:18;12.33;;;5.97;;
6842;SDS011;3460;52.028;8.916;2024-03-17T09:20:45;7.97;;;5.07;;
6842;SDS011;3460;52.028;8.916;2024-03-17T09:23:12;11.33;;;6.00;;
6842;SDS011;3460;52.028;8.916;2024-03-17T09:25:39;14.17;;;6.17;;
6842;SDS011;3460;52.028;8.916;2024-03-17T09:28:06;10.10;;;5.87;;
6842;SDS011;3460;52.028;8.916;2024-03-17T09:30:33;10.20;;;6.03;;
6842;SDS011;3460;52.028;8.916;2024-03-17T09:33:01;10.97;;;6.50;;
6842;SDS011;3460;52.028;8.916;2024-03-17T09:35:29;10.57;;;6.17;;
6842;SDS011;3460;52.028;8.916;2024-03-17T09:37:56;11.73;;;6.70;;
6842;SDS011;3460;52.028;8.916;2024-03-17T09:40:23;10.00;;;6.27;;
6842;SDS011;3460;52.028;8.916;2024-03-17T09:42:50;10.47;;;6.83;;
6842;SDS011;3460;52.028;8.916;2024-03-17T09:45:17;13.17;;;7.10;;
6842;SDS011;3460;52.028;8.916;2024-03-17T09:47:46;14.80;;;6.60;;
6842;SDS011;3460;52.028;8.916;2024-03-17T09:50:15;12.40;;;6.67;;
6842;SDS011;3460;52.028;8.916;2024-03-17T09:52:44;12.27;;;6.73;;
6842;SDS011;3460;52.028;8.916;2024-03-17T09:55:13;13.90;;;7.47;;
6842;SDS011;3460;52.028;8.916;2024-03-17T09:57:42;14.63;;;7.47;;
6842;SDS011;3460;52.028;8.916;2024-03-17T10:00:10;12.80;;;7.90;;
6842;SDS011;3460;52.028;8.916;2024-03-17T10:02:41;12.80;;;6.73;;
6842;SDS011;3460;52.028;8.916;2024-03-17T10:05:19;15.60;;;7.83;;
6842;SDS011;3460;52.028;8.916;2024-03-17T10:07:47;10.73;;;6.20;;
6842;SDS011;3460;52.028;8.916;2024-03-17T10:10:14;13.30;;;7.17;;
6842;SDS011;3460;52.028;8.916;2024-03-17T10:12:43;14.67;;;6.83;;
6842;SDS011;3460;52.028;8.916;2024-03-17T10:15:10;11.97;;;7.17;;
6842;SDS011;3460;52.028;8.916;2024-03-17T10:17:38;11.60;;;6.97;;
6842;SDS011;3460;52.028;8.916;2024-03-17T10:20:11;12.67;;;8.00;;
6842;SDS011;3460;52.028;8.916;2024-03-17T10:22:49;11.10;;;7.03;;
6842;SDS011;3460;52.028;8.916;2024-03-17T10:25:24;11.43;;;7.47;;
6842;SDS011;3460;52.028;8.916;2024-03-17T10:27:52;11.33;;;7.40;;
6842;SDS011;3460;52.028;8.916;2024-03-17T10:30:19;9.00;;;6.43;;
6842;SDS011;3460;52.028;8.916;2024-03-17T10:32:51;9.60;;;6.77;;
6842;SDS011;3460;52.028;8.916;2024-03-17T10:35:26;12.53;;;7.70;;
6842;SDS011;3460;52.028;8.916;2024-03-17T10:37:57;11.83;;;7.40;;
6842;SDS011;3460;52.028;8.916;2024-03-17T10:40:25;12.20;;;7.43;;
6842;SDS011;3460;52.028;8.916;2024-03-17T10:42:54;12.40;;;7.10;;
6842;SDS011;3460;52.028;8.916;2024-03-17T10:45:22;12.37;;;7.13;;
6842;SDS011;3460;52.028;8.916;2024-03-17T10:47:50;12.80;;;6.57;;
6842;SDS011;3460;52.028;8.916;2024-03-17T10:50:18;9.77;;;6.43;;
6842;SDS011;3460;52.028;8.916;2024-03-17T10:52:46;9.23;;;6.57;;
6842;SDS011;3460;52.028;8.916;2024-03-17T10:55:23;11.20;;;6.70;;
6842;SDS011;3460;52.028;8.916;2024-03-17T10:57:52;9.93;;;6.67;;
6842;SDS011;3460;52.028;8.916;2024-03-17T11:00:21;8.80;;;6.87;;
6842;SDS011;3460;52.028;8.916;2024-03-17T11:02:49;12.23;;;6.93;;
6842;SDS011;3460;52.028;8.916;2024-03-17T11:05:18;10.93;;;7.00;;
6842;SDS011;3460;52.028;8.916;2024-03-17T11:07:48;10.47;;;6.73;;
6842;SDS011;3460;52.028;8.916;2024-03-17T11:10:18;9.03;;;7.10;;
6842;SDS011;3460;52.028;8.916;2024-03-17T11:12:48;11.67;;;6.97;;
6842;SDS011;3460;52.028;8.916;2024-03-17T11:21:01;9.87;;;7.40;;
6842;SDS011;3460;52.028;8.916;2024-03-17T11:23:35;11.63;;;7.13;;
6842;SDS011;3460;52.028;8.916;2024-03-17T11:26:03;10.73;;;7.20;;
6842;SDS011;3460;52.028;8.916;2024-03-17T11:28:45;11.20;;;7.53;;
6842;SDS011;3460;52.028;8.916;2024-03-17T11:34:27;9.40;;;6.60;;
6842;SDS011;3460;52.028;8.916;2024-03-17T11:36:59;10.93;;;7.60;;
6842;SDS011;3460;52.028;8.916;2024-03-17T11:42:14;10.40;;;7.47;;
6842;SDS011;3460;52.028;8.916;2024-03-17T11:44:43;12.50;;;7.53;;
6842;SDS011;3460;52.028;8.916;2024-03-17T11:47:19;13.10;;;7.50;;
6842;SDS011;3460;52.028;8.916;2024-03-17T11:49:45;10.93;;;8.00;;
6842;SDS011;3460;52.028;8.916;2024-03-17T11:52:13;11.93;;;7.80;;
6842;SDS011;3460;52.028;8.916;2024-03-17T11:54:41;13.40;;;8.53;;
6842;SDS011;3460;52.028;8.916;2024-03-17T11:57:09;16.10;;;8.80;;
6842;SDS011;3460;52.028;8.916;2024-03-17T11:59:36;12.57;;;8.80;;
6842;SDS011;3460;52.028;8.916;2024-03-17T12:02:13;10.93;;;8.20;;
6842;SDS011;3460;52.028;8.916;2024-03-17T12:04:42;14.47;;;8.43;;
6842;SDS011;3460;52.028;8.916;2024-03-17T12:07:10;12.33;;;8.60;;
6842;SDS011;3460;52.028;8.916;2024-03-17T12:09:38;12.67;;;8.73;;
6842;SDS011;3460;52.028;8.916;2024-03-17T12:12:08;13.50;;;8.50;;
6842;SDS011;3460;52.028;8.916;2024-03-17T12:14:35;16.63;;;9.83;;
6842;SDS011;3460;52.028;8.916;2024-03-17T12:17:03;17.87;;;11.50;;
6842;SDS011;3460;52.028;8.916;2024-03-17T12:19:31;13.23;;;9.97;;
6842;SDS011;3460;52.028;8.916;2024-03-17T12:21:58;12.13;;;9.37;;
6842;SDS011;3460;52.028;8.916;2024-03-17T12:24:25;14.90;;;9.10;;
6842;SDS011;3460;52.028;8.916;2024-03-17T12:26:53;13.20;;;9.50;;
6842;SDS011;3460;52.028;8.916;2024-03-17T12:29:24;13.30;;;9.47;;
6842;SDS011;3460;52.028;8.916;2024-03-17T12:31:55;11.33;;;8.87;;
6842;SDS011;3460;52.028;8.916;2024-03-17T12:34:22;13.73;;;10.40;;
6842;SDS011;3460;52.028;8.916;2024-03-17T12:36:53;14.83;;;9.67;;
6842;SDS011;3460;52.028;8.916;2024-03-17T12:39:20;13.70;;;9.87;;
6842;SDS011;3460;52.028;8.916;2024-03-17T12:42:00;14.07;;;8.67;;
6842;SDS011;3460;52.028;8.916;2024-03-17T12:44:31;14.63;;;9.73;;
6842;SDS011;3460;52.028;8.916;2024-03-17T12:46:58;13.63;;;9.20;;
6842;SDS011;3460;52.028;8.916;2024-03-17T12:49:27;12.63;;;9.13;;
6842;SDS011;3460;52.028;8.916;2024-03-17T12:51:54;12.13;;;8.57;;
6842;SDS011;3460;52.028;8.916;2024-03-17T12:54:22;12.83;;;9.27;;
6842;SDS011;3460;52.028;8.916;2024-03-17T12:56:52;14.67;;;9.97;;
6842;SDS011;3460;52.028;8.916;2024-03-17T12:59:47;14.63;;;9.30;;
6842;SDS011;3460;52.028;8.916;2024-03-17T13:02:31;12.70;;;8.87;;
6842;SDS011;3460;52.028;8.916;2024-03-17T13:05:10;11.70;;;8.87;;
6842;SDS011;3460;52.028;8.916;2024-03-17T13:07:41;15.23;;;9.27;;
6842;SDS011;3460;52.028;8.916;2024-03-17T13:10:13;13.60;;;9.80;;
6842;SDS011;3460;52.028;8.916;2024-03-17T13:12:41;12.40;;;8.03;;
6842;SDS011;3460;52.028;8.916;2024-03-17T13:15:08;13.03;;;8.30;;
6842;SDS011;3460;52.028;8.916;2024-03-17T13:17:40;12.90;;;8.53;;
6842;SDS011;3460;52.028;8.916;2024-03-17T13:20:08;29.07;;;18.23;;
6842;SDS011;3460;52.028;8.916;2024-03-17T13:22:41;13.33;;;9.10;;
6842;SDS011;3460;52.028;8.916;2024-03-17T13:25:12;13.20;;;8.93;;
6842;SDS011;3460;52.028;8.916;2024-03-17T13:27:41;11.50;;;9.27;;
6842;SDS011;3460;52.028;8.916;2024-03-17T13:30:08;14.23;;;9.50;;
6842;SDS011;3460;52.028;8.916;2024-03-17T13:32:36;11.43;;;8.93;;
6842;SDS011;3460;52.028;8.916;2024-03-17T13:35:04;14.43;;;8.60;;
6842;SDS011;3460;52.028;8.916;2024-03-17T13:37:33;12.43;;;9.07;;
6842;SDS011;3460;52.028;8.916;2024-03-17T13:40:01;15.20;;;9.83;;
6842;SDS011;3460;52.028;8.916;2024-03-17T13:42:30;13.13;;;9.03;;
6842;SDS011;3460;52.028;8.916;2024-03-17T13:44:57;14.13;;;9.80;;
6842;SDS011;3460;52.028;8.916;2024-03-17T13:47:24;14.20;;;9.77;;
6842;SDS011;3460;52.028;8.916;2024-03-17T13:49:51;17.93;;;9.57;;
6842;SDS011;3460;52.028;8.916;2024-03-17T13:52:18;14.27;;;9.20;;
6842;SDS011;3460;52.028;8.916;2024-03-17T13:54:44;13.10;;;9.30;;
6842;SDS011;3460;52.028;8.916;2024-03-17T13:57:13;12.83;;;9.67;;
6842;SDS011;3460;52.028;8.916;2024-03-17T13:59:40;13.27;;;9.27;;
6842;SDS011;3460;52.028;8.916;2024-03-17T14:02:08;13.63;;;9.63;;
6842;SDS011;3460;52.028;8.916;2024-03-17T14:04:39;15.17;;;9.47;;
6842;SDS011;3460;52.028;8.916;2024-03-17T14:07:06;12.50;;;9.70;;
6842;SDS011;3460;52.028;8.916;2024-03-17T14:09:33;12.83;;;9.43;;
6842;SDS011;3460;52.028;8.916;2024-03-17T14:12:00;13.23;;;9.90;;
6842;SDS011;3460;52.028;8.916;2024-03-17T14:14:28;14.30;;;9.97;;
6842;SDS011;3460;52.028;8.916;2024-03-17T14:16:55;11.87;;;8.90;;
6842;SDS011;3460;52.028;8.916;2024-03-17T14:19:22;14.50;;;9.63;;
6842;SDS011;3460;52.028;8.916;2024-03-17T14:21:49;13.90;;;10.43;;
6842;SDS011;3460;52.028;8.916;2024-03-17T14:24:19;16.27;;;10.50;;
6842;SDS011;3460;52.028;8.916;2024-03-17T14:26:46;14.03;;;9.20;;
6842;SDS011;3460;52.028;8.916;2024-03-17T14:29:13;13.33;;;9.17;;
6842;SDS011;3460;52.028;8.916;2024-03-17T14:31:43;11.83;;;9.50;;
6842;SDS011;3460;52.028;8.916;2024-03-17T14:34:10;11.83;;;9.10;;
6842;SDS011;3460;52.028;8.916;2024-03-17T14:36:37;15.60;;;9.60;;
6842;SDS011;3460;52.028;8.916;2024-03-17T14:39:04;13.77;;;9.83;;
6842;SDS011;3460;52.028;8.916;2024-03-17T14:41:33;12.13;;;9.37;;
6842;SDS011;3460;52.028;8.916;2024-03-17T14:43:59;13.03;;;9.40;;
6842;SDS011;3460;52.028;8.916;2024-03-17T14:46:29;10.57;;;8.30;;
6842;SDS011;3460;52.028;8.916;2024-03-17T14:48:58;11.40;;;9.07;;
6842;SDS011;3460;52.028;8.916;2024-03-17T14:51:25;14.37;;;9.20;;
6842;SDS011;3460;52.028;8.916;2024-03-17T14:53:52;13.70;;;9.50;;
6842;SDS011;3460;52.028;8.916;2024-03-17T14:56:18;12.30;;;8.73;;
6842;SDS011;3460;52.028;8.916;2024-03-17T14:58:45;12.17;;;9.00;;
6842;SDS011;3460;52.028;8.916;2024-03-17T15:01:12;12.10;;;8.67;;
6842;SDS011;3460;52.028;8.916;2024-03-17T15:03:39;12.07;;;8.57;;
6842;SDS011;3460;52.028;8.916;2024-03-17T15:06:11;11.73;;;8.80;;
6842;SDS011;3460;52.028;8.916;2024-03-17T15:08:39;9.73;;;7.70;;
6842;SDS011;3460;52.028;8.916;2024-03-17T15:11:06;11.07;;;8.67;;
6842;SDS011;3460;52.028;8.916;2024-03-17T15:13:34;14.07;;;9.20;;
6842;SDS011;3460;52.028;8.916;2024-03-17T15:16:01;10.50;;;7.70;;
6842;SDS011;3460;52.028;8.916;2024-03-17T15:18:29;11.97;;;8.77;;
6842;SDS011;3460;52.028;8.916;2024-03-17T15:20:56;10.43;;;7.73;;
6842;SDS011;3460;52.028;8.916;2024-03-17T15:23:27;12.03;;;8.83;;
6842;SDS011;3460;52.028;8.916;2024-03-17T15:26:00;11.83;;;7.73;;
6842;SDS011;3460;52.028;8.916;2024-03-17T15:28:33;11.40;;;7.57;;
6842;SDS011;3460;52.028;8.916;2024-03-17T15:31:01;13.33;;;8.33;;